• Join FlightAware (Why Join?)
  • Login
  • US Flag 
08:18PM EDT


 

Airport Tracker/Info


-or-


 

Live Flight TrackerFlight Track Log ✈ CNS523 ✈ 26-Apr-2013 ✈ KIAD - KPSM

Flight Track Log - Related Links

Times and Time Zones

All times are in EDT time to prevent confusion due to time zone crossing. See the CNS523 flight status page for this flight to view local times or setup timezone preferences in your user account.

Time Position Orientation Groundspeed Altitude Reporting Facility
EDT Latitude Longitude Course Direction KTS MPH feet Rate Location/Type
08:03PM 39.3178 -76.8683 48° Northeast 235 270 15,000  Level New York Center
08:04PM 39.3678 -76.7894 51° Northeast 235 270 16,500 1,140 Climbing New York Center
08:05PM 39.4061 -76.7336 48° Northeast 224 258 17,400 420 Climbing New York Center
08:06PM 39.4581 -76.6544 50° Northeast 250 288 17,400  Level New York Center
08:07PM 39.5050 -76.5886 47° Northeast 267 307 17,500  Climbing New York Center
08:08PM 39.7227 -76.3189 48° Northeast  Level Estimated
08:08PM 39.5611 -76.5069 48° Northeast 272 313 17,500  Level New York Center
08:09PM 39.6061 -76.4406 49° Northeast 272 313 17,500  Level New York Center
08:10PM 39.6622 -76.3561 49° Northeast 272 313 17,500  Level New York Center
08:11PM 39.7072 -76.2894 49° Northeast 272 313 17,500  Level New York Center
08:12PM 39.7653 -76.2047 48° Northeast 272 313 17,500  Level New York Center
08:13PM 39.8147 -76.1275 50° Northeast 272 313 17,500  Level New York Center
08:14PM 39.8661 -76.0503 49° Northeast 272 313 17,500  Level New York Center
08:15PM 39.9131 -75.9808 49° Northeast 272 313 17,500  Level New York Center
08:16PM 39.9622 -75.9058 49° Northeast 272 313 17,500  Level New York Center
08:17PM 40.0131 -75.8336 47° Northeast 272 313 17,500  Level New York Center
08:18PM 40.0644 -75.7561 49° Northeast 272 313 17,500  Level New York Center
08:19PM 40.1156 -75.6811 48° Northeast 267 307 17,500  Level New York Center
08:20PM 40.1667 -75.6058 48° Northeast 267 307 17,500  Level New York Center
08:21PM 40.2156 -75.5278 51° Northeast 272 313 17,500  Level New York Center
08:22PM 40.2644 -75.4522 50° Northeast 272 313 17,500  Level New York Center
08:23PM 40.3178 -75.3686 50° Northeast 272 313 17,500  Level New York Center
08:24PM 40.3664 -75.2956 49° Northeast 267 307 17,500  Level New York Center
08:25PM 40.4172 -75.2200 49° Northeast 267 307 17,500  Level New York Center
08:26PM 40.4614 -75.1519 50° Northeast 273 314 17,500  Level New York Center
08:27PM 40.5144 -75.0706 49° Northeast 268 308 17,500  Level New York Center
08:28PM 40.5633 -74.9917 51° Northeast 268 308 17,500  Level New York Center
08:29PM 40.6117 -74.9153 50° Northeast 268 308 17,500  Level New York Center
08:30PM 40.6622 -74.8419 48° Northeast 273 314 17,500  Level New York Center
08:31PM 40.7064 -74.7706 51° Northeast 267 307 17,500  Level New York Center
08:32PM 40.7592 -74.6861 50° Northeast 267 307 17,500  Level New York Center
08:33PM 40.8031 -74.6172 50° Northeast 267 307 17,500  Level New York Center
08:34PM 40.8667 -74.5167 50° Northeast 278 320 17,500  Level New York TRACON
08:35PM 40.8997 -74.4636 50° Northeast 272 313 17,500  Level New York Center
08:36PM 40.9522 -74.3811 50° Northeast 272 313 17,500  Level New York Center
08:37PM 41.0167 -74.2833 49° Northeast 270 311 17,500  Level New York TRACON
08:38PM 41.0500 -74.2167 56° Northeast 267 307 17,500  Level New York TRACON
08:39PM 41.1000 -74.1500 45° Northeast 263 303 17,500  Level New York TRACON
08:40PM 41.1500 -74.0667 51° Northeast 265 305 17,500  Level New York TRACON
08:41PM 41.2000 -74.0000 45° Northeast 266 306 17,500  Level New York TRACON
08:42PM 41.2333 -73.9167 62° Northeast 263 303 17,500 -60 Level New York TRACON
08:43PM 41.2833 -73.8500 45° Northeast 267 307 17,400  Descending New York TRACON
08:44PM 41.3333 -73.7667 51° Northeast 265 305 17,500  Climbing New York TRACON
08:45PM 41.3833 -73.7000 45° Northeast 260 299 17,500  Level New York TRACON
08:46PM 41.4333 -73.6167 51° Northeast 266 306 17,500  Level New York TRACON
08:47PM 41.4833 -73.5333 51° Northeast 265 305 17,500  Level New York TRACON
08:48PM 41.5167 -73.4667 56° Northeast 267 307 17,500  Level New York TRACON
08:49PM 41.5833 -73.3833 43° Northeast 266 306 17,500  Level New York TRACON
08:50PM 41.6167 -73.3167 56° Northeast 265 305 17,500  Level New York TRACON
08:50PM 41.6175 -73.3203 287° West 257 296 17,500  Level Boston Center
08:51PM 41.6725 -73.2294 51° Northeast 257 296 17,500  Level Boston Center
08:52PM 41.7231 -73.1439 52° Northeast 257 296 17,500  Level Boston Center
08:53PM 41.7650 -73.0747 51° Northeast 257 296 17,500  Level Boston Center
08:54PM 41.8156 -72.9917 51° Northeast 257 296 17,500  Level Boston Center
08:55PM 41.8575 -72.9222 51° Northeast 251 289 17,500  Level Boston Center
08:56PM 41.9036 -72.8472 50° Northeast 257 296 17,500  Level Boston Center
08:57PM 41.9478 -72.7694 53° Northeast 257 296 17,500  Level Boston Center
08:58PM 41.9936 -72.6942 51° Northeast 257 296 17,500  Level Boston Center
08:59PM 42.0397 -72.6161 51° Northeast 257 296 17,500  Level Boston Center
09:00PM 42.0897 -72.5297 52° Northeast 257 296 17,500  Level Boston Center
09:01PM 42.1317 -72.4597 51° Northeast 257 296 17,500  Level Boston Center
09:02PM 42.1817 -72.3756 51° Northeast 257 296 17,500  Level Boston Center
09:03PM 42.2211 -72.3056 53° Northeast 257 296 17,500  Level Boston Center
09:04PM 42.2731 -72.2211 50° Northeast 257 296 17,500  Level Boston Center
09:05PM 42.3147 -72.1508 51° Northeast 257 296 17,500  Level Boston Center
09:06PM 42.3622 -72.0636 54° Northeast 257 296 17,500  Level Boston Center
09:07PM 42.4036 -71.9958 50° Northeast 257 296 17,500  Level Boston Center
09:08PM 42.4533 -71.9111 51° Northeast 257 296 17,500  Level Boston Center
09:09PM 42.4925 -71.8431 52° Northeast 257 296 17,500  Level Boston Center
09:10PM 42.5442 -71.7581 50° Northeast 252 290 17,500 -120 Level Boston Center
09:11PM 42.5856 -71.6872 52° Northeast 257 296 17,300 -1,020 Descending Boston Center
09:12PM 42.6369 -71.5933 53° Northeast 263 303 15,500 -1,740 Descending Boston Center
09:13PM 42.6822 -71.5167 51° Northeast 278 320 13,900 -1,740 Descending Boston Center
09:14PM 42.7378 -71.4225 51° Northeast 283 326 12,100 -1,440 Descending Boston Center
09:15PM 42.7828 -71.3481 51° Northeast 283 326 11,100 -540 Descending Boston Center
09:16PM 42.8300 -71.2625 53° Northeast 271 312 11,100 -300 Level Boston Center
09:17PM 42.8708 -71.1936 51° Northeast 260 299 10,500 -1,200 Descending Boston Center
09:18PM 42.9000 -71.1333 57° Northeast 266 306 9,400 -1,920 Descending KA90
09:19PM 42.9500 -71.0667 44° Northeast 265 305 7,700 -1,920 Descending KA90
09:20PM 42.9833 -70.9833 61° Northeast 247 284 5,400 -2,040 Descending KA90
09:21PM 43.0333 -70.9500 26° Northeast 206 237 3,700 -1,500 Descending KA90
09:22PM 43.1000 -70.9167 20° North 196 226 2,500 -1,140 Descending KA90
09:23PM 43.1167 -70.8833 56° Northeast 139 160 1,300 -960 Descending KA90
09:24PM 43.1000 -70.8500 124° Southeast 117 135 600 2,880 Descending KA90
09:26PM 43.0578 -70.8033 141° Southeast 97 112 11,000 3,120 Climbing Boston Center
09:27PM 43.0364 -70.7811 143° Southeast 97 112 11,000  Level Boston Center
09:29PM 43.0667 -70.8167 312° West  Level FlightAware Approximate
09:36PM 43.0779 -70.8233 312° West  Level Estimated